sensor_id;sensor_type;location;lat;lon;timestamp;pressure;altitude;pressure_sealevel;temperature;humidity
58473;BME280;44775;51.564;5.460;2023-04-25T00:00:17;100801.97;;;5.27;100.00
58473;BME280;44775;51.564;5.460;2023-04-25T00:02:43;100809.19;;;5.25;100.00
58473;BME280;44775;51.564;5.460;2023-04-25T00:05:08;100817.00;;;5.16;100.00
58473;BME280;44775;51.564;5.460;2023-04-25T00:07:34;100818.22;;;5.12;100.00
58473;BME280;44775;51.564;5.460;2023-04-25T00:09:59;100820.81;;;5.03;100.00
58473;BME280;44775;51.564;5.460;2023-04-25T00:12:25;100819.00;;;4.93;100.00
58473;BME280;44775;51.564;5.460;2023-04-25T00:14:50;100813.22;;;4.88;100.00
58473;BME280;44775;51.564;5.460;2023-04-25T00:17:16;100816.41;;;4.82;100.00
58473;BME280;44775;51.564;5.460;2023-04-25T00:19:41;100823.66;;;4.80;100.00
58473;BME280;44775;51.564;5.460;2023-04-25T00:22:07;100832.28;;;4.72;100.00
58473;BME280;44775;51.564;5.460;2023-04-25T00:24:32;100832.78;;;4.66;100.00
58473;BME280;44775;51.564;5.460;2023-04-25T00:26:57;100836.28;;;4.67;100.00
58473;BME280;44775;51.564;5.460;2023-04-25T00:29:22;100827.34;;;4.68;100.00
58473;BME280;44775;51.564;5.460;2023-04-25T00:31:48;100836.44;;;4.75;100.00
58473;BME280;44775;51.564;5.460;2023-04-25T00:34:13;100827.59;;;4.65;100.00
58473;BME280;44775;51.564;5.460;2023-04-25T00:36:38;100827.03;;;4.61;100.00
58473;BME280;44775;51.564;5.460;2023-04-25T00:39:03;100830.41;;;4.63;100.00
58473;BME280;44775;51.564;5.460;2023-04-25T00:41:29;100827.69;;;4.54;100.00
58473;BME280;44775;51.564;5.460;2023-04-25T00:43:55;100818.09;;;4.53;100.00
58473;BME280;44775;51.564;5.460;2023-04-25T00:46:21;100818.09;;;4.53;100.00
58473;BME280;44775;51.564;5.460;2023-04-25T00:48:46;100827.47;;;4.45;100.00
58473;BME280;44775;51.564;5.460;2023-04-25T00:51:16;100819.69;;;4.44;100.00
58473;BME280;44775;51.564;5.460;2023-04-25T00:53:41;100818.84;;;4.43;100.00
58473;BME280;44775;51.564;5.460;2023-04-25T00:56:07;100819.13;;;4.40;100.00
58473;BME280;44775;51.564;5.460;2023-04-25T00:58:32;100820.34;;;4.36;100.00
58473;BME280;44775;51.564;5.460;2023-04-25T01:00:57;100818.94;;;4.32;100.00
58473;BME280;44775;51.564;5.460;2023-04-25T01:03:22;100826.59;;;4.35;100.00
58473;BME280;44775;51.564;5.460;2023-04-25T01:05:48;100826.25;;;4.29;100.00
58473;BME280;44775;51.564;5.460;2023-04-25T01:08:14;100824.34;;;4.31;100.00
58473;BME280;44775;51.564;5.460;2023-04-25T01:10:39;100825.69;;;4.25;100.00
58473;BME280;44775;51.564;5.460;2023-04-25T01:13:05;100827.03;;;4.19;100.00
58473;BME280;44775;51.564;5.460;2023-04-25T01:15:30;100827.63;;;4.23;100.00
58473;BME280;44775;51.564;5.460;2023-04-25T01:17:55;100824.66;;;4.16;100.00
58473;BME280;44775;51.564;5.460;2023-04-25T01:20:22;100830.19;;;4.13;100.00
58473;BME280;44775;51.564;5.460;2023-04-25T01:22:48;100830.69;;;4.07;100.00
58473;BME280;44775;51.564;5.460;2023-04-25T01:25:14;100830.13;;;4.03;100.00
58473;BME280;44775;51.564;5.460;2023-04-25T01:27:39;100832.66;;;4.05;100.00
58473;BME280;44775;51.564;5.460;2023-04-25T01:30:05;100825.63;;;4.15;100.00
58473;BME280;44775;51.564;5.460;2023-04-25T01:32:30;100840.63;;;4.15;100.00
58473;BME280;44775;51.564;5.460;2023-04-25T01:35:03;100835.34;;;4.15;100.00
58473;BME280;44775;51.564;5.460;2023-04-25T01:37:28;100837.03;;;4.16;100.00
58473;BME280;44775;51.564;5.460;2023-04-25T01:39:53;100842.78;;;4.21;100.00
58473;BME280;44775;51.564;5.460;2023-04-25T01:42:19;100843.56;;;4.33;100.00
58473;BME280;44775;51.564;5.460;2023-04-25T01:44:44;100843.19;;;4.37;100.00
58473;BME280;44775;51.564;5.460;2023-04-25T01:47:09;100843.06;;;4.39;100.00
58473;BME280;44775;51.564;5.460;2023-04-25T01:49:34;100849.78;;;4.43;100.00
58473;BME280;44775;51.564;5.460;2023-04-25T01:51:59;100848.94;;;4.42;100.00
58473;BME280;44775;51.564;5.460;2023-04-25T01:54:25;100846.00;;;4.45;100.00
58473;BME280;44775;51.564;5.460;2023-04-25T01:56:50;100844.22;;;4.46;100.00
58473;BME280;44775;51.564;5.460;2023-04-25T01:59:16;100847.88;;;4.55;100.00
58473;BME280;44775;51.564;5.460;2023-04-25T02:01:41;100847.88;;;4.55;100.00
58473;BME280;44775;51.564;5.460;2023-04-25T02:04:06;100848.13;;;4.52;100.00
58473;BME280;44775;51.564;5.460;2023-04-25T02:06:31;100849.25;;;4.49;100.00
58473;BME280;44775;51.564;5.460;2023-04-25T02:08:57;100860.94;;;4.46;100.00
58473;BME280;44775;51.564;5.460;2023-04-25T02:11:22;100863.69;;;4.45;100.00
58473;BME280;44775;51.564;5.460;2023-04-25T02:13:47;100861.69;;;4.37;100.00
58473;BME280;44775;51.564;5.460;2023-04-25T02:16:12;100860.78;;;4.27;100.00
58473;BME280;44775;51.564;5.460;2023-04-25T02:18:38;100866.00;;;4.17;100.00
58473;BME280;44775;51.564;5.460;2023-04-25T02:21:04;100871.78;;;4.11;100.00
58473;BME280;44775;51.564;5.460;2023-04-25T02:23:29;100868.69;;;4.06;100.00
58473;BME280;44775;51.564;5.460;2023-04-25T02:25:55;100870.63;;;4.04;100.00
58473;BME280;44775;51.564;5.460;2023-04-25T02:28:21;100869.91;;;4.02;100.00
58473;BME280;44775;51.564;5.460;2023-04-25T02:30:46;100865.81;;;3.98;100.00
58473;BME280;44775;51.564;5.460;2023-04-25T02:33:11;100865.81;;;3.98;100.00
58473;BME280;44775;51.564;5.460;2023-04-25T02:35:36;100863.56;;;3.93;100.00
58473;BME280;44775;51.564;5.460;2023-04-25T02:38:01;100870.53;;;3.94;100.00
58473;BME280;44775;51.564;5.460;2023-04-25T02:40:27;100867.28;;;3.91;100.00
58473;BME280;44775;51.564;5.460;2023-04-25T02:42:52;100864.19;;;3.86;100.00
58473;BME280;44775;51.564;5.460;2023-04-25T02:45:17;100860.97;;;3.82;100.00
58473;BME280;44775;51.564;5.460;2023-04-25T02:47:42;100865.66;;;3.78;100.00
58473;BME280;44775;51.564;5.460;2023-04-25T02:50:08;100869.25;;;3.77;100.00
58473;BME280;44775;51.564;5.460;2023-04-25T02:52:33;100872.63;;;3.79;100.00
58473;BME280;44775;51.564;5.460;2023-04-25T02:54:58;100867.38;;;3.68;100.00
58473;BME280;44775;51.564;5.460;2023-04-25T02:57:23;100868.69;;;3.63;100.00
58473;BME280;44775;51.564;5.460;2023-04-25T02:59:48;100866.19;;;3.50;100.00
58473;BME280;44775;51.564;5.460;2023-04-25T03:02:14;100867.78;;;3.41;100.00
58473;BME280;44775;51.564;5.460;2023-04-25T03:04:39;100869.19;;;3.34;100.00
58473;BME280;44775;51.564;5.460;2023-04-25T03:07:04;100871.50;;;3.27;100.00
58473;BME280;44775;51.564;5.460;2023-04-25T03:09:30;100867.66;;;3.20;100.00
58473;BME280;44775;51.564;5.460;2023-04-25T03:11:55;100869.09;;;3.13;100.00
58473;BME280;44775;51.564;5.460;2023-04-25T03:14:22;100872.84;;;3.11;100.00
58473;BME280;44775;51.564;5.460;2023-04-25T03:16:47;100872.09;;;3.08;100.00
58473;BME280;44775;51.564;5.460;2023-04-25T03:19:12;100867.28;;;3.02;100.00
58473;BME280;44775;51.564;5.460;2023-04-25T03:21:37;100869.22;;;3.00;100.00
58473;BME280;44775;51.564;5.460;2023-04-25T03:24:03;100870.53;;;2.95;100.00
58473;BME280;44775;51.564;5.460;2023-04-25T03:26:28;100874.47;;;2.89;100.00
58473;BME280;44775;51.564;5.460;2023-04-25T03:28:54;100876.53;;;2.86;100.00
58473;BME280;44775;51.564;5.460;2023-04-25T03:31:19;100879.06;;;2.87;100.00
58473;BME280;44775;51.564;5.460;2023-04-25T03:33:45;100878.09;;;2.88;100.00
58473;BME280;44775;51.564;5.460;2023-04-25T03:36:10;100870.78;;;2.92;100.00
58473;BME280;44775;51.564;5.460;2023-04-25T03:38:35;100874.16;;;2.94;100.00
58473;BME280;44775;51.564;5.460;2023-04-25T03:41:01;100876.53;;;2.97;100.00
58473;BME280;44775;51.564;5.460;2023-04-25T03:43:26;100875.22;;;3.02;100.00
58473;BME280;44775;51.564;5.460;2023-04-25T03:45:51;100872.34;;;3.05;100.00
58473;BME280;44775;51.564;5.460;2023-04-25T03:48:16;100872.09;;;3.08;100.00
58473;BME280;44775;51.564;5.460;2023-04-25T03:50:41;100875.47;;;3.11;100.00
58473;BME280;44775;51.564;5.460;2023-04-25T03:53:07;100878.59;;;3.16;100.00
58473;BME280;44775;51.564;5.460;2023-04-25T03:55:32;100874.63;;;3.21;100.00
58473;BME280;44775;51.564;5.460;2023-04-25T03:57:57;100873.44;;;3.25;100.00
58473;BME280;44775;51.564;5.460;2023-04-25T04:00:23;100879.53;;;3.26;100.00
58473;BME280;44775;51.564;5.460;2023-04-25T04:02:48;100874.41;;;3.24;100.00
58473;BME280;44775;51.564;5.460;2023-04-25T04:05:13;100883.03;;;3.26;100.00
58473;BME280;44775;51.564;5.460;2023-04-25T04:07:38;100881.81;;;3.30;100.00
58473;BME280;44775;51.564;5.460;2023-04-25T04:10:06;100885.78;;;3.36;100.00
58473;BME280;44775;51.564;5.460;2023-04-25T04:12:31;100896.09;;;3.39;100.00
58473;BME280;44775;51.564;5.460;2023-04-25T04:14:56;100903.06;;;3.40;100.00
58473;BME280;44775;51.564;5.460;2023-04-25T04:17:21;100906.19;;;3.45;100.00
58473;BME280;44775;51.564;5.460;2023-04-25T04:19:46;100908.69;;;3.47;100.00
58473;BME280;44775;51.564;5.460;2023-04-25T04:22:12;100902.09;;;3.52;100.00
58473;BME280;44775;51.564;5.460;2023-04-25T04:24:37;100902.69;;;3.56;100.00
58473;BME280;44775;51.564;5.460;2023-04-25T04:27:02;100900.66;;;3.60;100.00
58473;BME280;44775;51.564;5.460;2023-04-25T04:29:28;100906.91;;;3.59;100.00
58473;BME280;44775;51.564;5.460;2023-04-25T04:31:53;100904.38;;;3.57;100.00
58473;BME280;44775;51.564;5.460;2023-04-25T04:34:18;100908.56;;;3.60;100.00
58473;BME280;44775;51.564;5.460;2023-04-25T04:36:44;100913.38;;;3.66;100.00
58473;BME280;44775;51.564;5.460;2023-04-25T04:39:11;100915.78;;;3.69;100.00
58473;BME280;44775;51.564;5.460;2023-04-25T04:41:36;100915.03;;;3.67;100.00
58473;BME280;44775;51.564;5.460;2023-04-25T04:44:01;100916.72;;;3.68;100.00
58473;BME280;44775;51.564;5.460;2023-04-25T04:46:27;100927.03;;;3.71;100.00
58473;BME280;44775;51.564;5.460;2023-04-25T04:48:53;100919.63;;;3.65;100.00
58473;BME280;44775;51.564;5.460;2023-04-25T04:51:18;100917.59;;;3.68;100.00
58473;BME280;44775;51.564;5.460;2023-04-25T04:53:44;100923.47;;;3.72;100.00
58473;BME280;44775;51.564;5.460;2023-04-25T04:56:09;100926.81;;;3.74;100.00
58473;BME280;44775;51.564;5.460;2023-04-25T04:58:34;100934.38;;;3.78;100.00
58473;BME280;44775;51.564;5.460;2023-04-25T05:01:01;100936.28;;;3.88;100.00
58473;BME280;44775;51.564;5.460;2023-04-25T05:03:26;100941.44;;;3.89;100.00
58473;BME280;44775;51.564;5.460;2023-04-25T05:05:52;100943.72;;;3.94;100.00
58473;BME280;44775;51.564;5.460;2023-04-25T05:08:17;100951.03;;;4.01;100.00
58473;BME280;44775;51.564;5.460;2023-04-25T05:10:42;100953.19;;;4.08;100.00
58473;BME280;44775;51.564;5.460;2023-04-25T05:13:07;100957.00;;;4.15;100.00
58473;BME280;44775;51.564;5.460;2023-04-25T05:15:32;100965.16;;;4.23;100.00
58473;BME280;44775;51.564;5.460;2023-04-25T05:17:58;100967.09;;;4.32;100.00
58473;BME280;44775;51.564;5.460;2023-04-25T05:20:23;100967.53;;;4.37;100.00
58473;BME280;44775;51.564;5.460;2023-04-25T05:22:48;100967.28;;;4.40;100.00
58473;BME280;44775;51.564;5.460;2023-04-25T05:25:13;100970.13;;;4.48;100.00
58473;BME280;44775;51.564;5.460;2023-04-25T05:27:38;100975.41;;;4.48;100.00
58473;BME280;44775;51.564;5.460;2023-04-25T05:30:04;100981.13;;;4.65;100.00
58473;BME280;44775;51.564;5.460;2023-04-25T05:32:30;100986.16;;;4.68;100.00
58473;BME280;44775;51.564;5.460;2023-04-25T05:34:55;100991.88;;;4.84;100.00
58473;BME280;44775;51.564;5.460;2023-04-25T05:37:20;100987.66;;;5.03;100.00
58473;BME280;44775;51.564;5.460;2023-04-25T05:39:45;100990.19;;;5.25;100.00
58473;BME280;44775;51.564;5.460;2023-04-25T05:42:11;100992.59;;;5.28;100.00
58473;BME280;44775;51.564;5.460;2023-04-25T05:44:36;100990.13;;;5.67;100.00
58473;BME280;44775;51.564;5.460;2023-04-25T05:47:01;100995.75;;;5.83;100.00
58473;BME280;44775;51.564;5.460;2023-04-25T05:49:26;100995.50;;;5.86;100.00
58473;BME280;44775;51.564;5.460;2023-04-25T05:51:51;101006.31;;;5.95;100.00
58473;BME280;44775;51.564;5.460;2023-04-25T05:54:17;101002.75;;;6.15;100.00
58473;BME280;44775;51.564;5.460;2023-04-25T05:56:42;101005.81;;;6.20;100.00
58473;BME280;44775;51.564;5.460;2023-04-25T05:59:07;101016.47;;;6.39;100.00
58473;BME280;44775;51.564;5.460;2023-04-25T06:01:32;101030.75;;;6.58;100.00
58473;BME280;44775;51.564;5.460;2023-04-25T06:03:58;101027.25;;;6.67;100.00
58473;BME280;44775;51.564;5.460;2023-04-25T06:06:23;101032.28;;;6.70;100.00
58473;BME280;44775;51.564;5.460;2023-04-25T06:08:48;101041.94;;;6.71;100.00
58473;BME280;44775;51.564;5.460;2023-04-25T06:11:13;101036.22;;;6.76;100.00
58473;BME280;44775;51.564;5.460;2023-04-25T06:13:38;101044.03;;;6.68;100.00
58473;BME280;44775;51.564;5.460;2023-04-25T06:16:04;101039.44;;;6.79;100.00
58473;BME280;44775;51.564;5.460;2023-04-25T06:18:29;101026.28;;;6.68;100.00
58473;BME280;44775;51.564;5.460;2023-04-25T06:20:54;101034.13;;;6.70;100.00
58473;BME280;44775;51.564;5.460;2023-04-25T06:23:19;101042.78;;;6.62;100.00
58473;BME280;44775;51.564;5.460;2023-04-25T06:25:45;101040.69;;;6.56;100.00
58473;BME280;44775;51.564;5.460;2023-04-25T06:28:10;101048.50;;;6.77;100.00
58473;BME280;44775;51.564;5.460;2023-04-25T06:30:35;101046.41;;;7.29;100.00
58473;BME280;44775;51.564;5.460;2023-04-25T06:33:00;101045.88;;;7.63;100.00
58473;BME280;44775;51.564;5.460;2023-04-25T06:35:26;101044.22;;;7.99;100.00
58473;BME280;44775;51.564;5.460;2023-04-25T06:37:51;101046.16;;;8.34;100.00
58473;BME280;44775;51.564;5.460;2023-04-25T06:40:16;101052.72;;;8.67;100.00
58473;BME280;44775;51.564;5.460;2023-04-25T06:42:42;101060.38;;;9.06;95.43
58473;BME280;44775;51.564;5.460;2023-04-25T06:45:07;101062.84;;;9.43;97.15
58473;BME280;44775;51.564;5.460;2023-04-25T06:47:33;101072.88;;;9.50;91.50
58473;BME280;44775;51.564;5.460;2023-04-25T06:49:58;101068.38;;;9.50;90.88
58473;BME280;44775;51.564;5.460;2023-04-25T06:52:23;101070.22;;;9.76;88.86
58473;BME280;44775;51.564;5.460;2023-04-25T06:54:48;101072.69;;;9.69;89.50
58473;BME280;44775;51.564;5.460;2023-04-25T06:57:13;101075.56;;;9.76;86.40
58473;BME280;44775;51.564;5.460;2023-04-25T06:59:38;101076.34;;;10.02;88.62
58473;BME280;44775;51.564;5.460;2023-04-25T07:02:04;101085.97;;;10.21;83.80
58473;BME280;44775;51.564;5.460;2023-04-25T07:04:29;101080.81;;;10.20;83.88
58473;BME280;44775;51.564;5.460;2023-04-25T07:06:55;101080.28;;;10.50;79.04
58473;BME280;44775;51.564;5.460;2023-04-25T07:09:20;101079.25;;;10.43;83.22
58473;BME280;44775;51.564;5.460;2023-04-25T07:11:46;101086.69;;;10.74;83.67
58473;BME280;44775;51.564;5.460;2023-04-25T07:14:11;101100.78;;;11.00;74.62
58473;BME280;44775;51.564;5.460;2023-04-25T07:16:36;101095.53;;;10.82;80.14
58473;BME280;44775;51.564;5.460;2023-04-25T07:19:01;101095.88;;;10.79;77.14
58473;BME280;44775;51.564;5.460;2023-04-25T07:21:26;101094.38;;;10.93;78.12
58473;BME280;44775;51.564;5.460;2023-04-25T07:23:52;101098.09;;;11.17;73.01
58473;BME280;44775;51.564;5.460;2023-04-25T07:26:17;101102.47;;;11.34;67.04
58473;BME280;44775;51.564;5.460;2023-04-25T07:28:42;101108.09;;;11.06;71.01
58473;BME280;44775;51.564;5.460;2023-04-25T07:31:08;101116.47;;;11.03;72.02
58473;BME280;44775;51.564;5.460;2023-04-25T07:33:33;101115.81;;;11.09;68.50
58473;BME280;44775;51.564;5.460;2023-04-25T07:35:58;101117.66;;;11.09;74.24
58473;BME280;44775;51.564;5.460;2023-04-25T07:38:24;101126.53;;;11.18;71.27
58473;BME280;44775;51.564;5.460;2023-04-25T07:40:49;101133.22;;;11.30;71.75
58473;BME280;44775;51.564;5.460;2023-04-25T07:43:14;101134.19;;;11.04;68.45
58473;BME280;44775;51.564;5.460;2023-04-25T07:45:44;101142.88;;;10.90;65.40
58473;BME280;44775;51.564;5.460;2023-04-25T07:48:09;101131.38;;;10.55;70.55
58473;BME280;44775;51.564;5.460;2023-04-25T07:50:35;101137.97;;;10.77;71.51
58473;BME280;44775;51.564;5.460;2023-04-25T07:53:00;101141.84;;;10.91;74.92
58473;BME280;44775;51.564;5.460;2023-04-25T07:55:25;101145.56;;;11.06;71.57
58473;BME280;44775;51.564;5.460;2023-04-25T07:57:51;101143.91;;;11.22;69.74
58473;BME280;44775;51.564;5.460;2023-04-25T08:00:16;101151.28;;;11.36;68.87
58473;BME280;44775;51.564;5.460;2023-04-25T08:02:41;101144.59;;;11.24;68.89
58473;BME280;44775;51.564;5.460;2023-04-25T08:05:07;101142.22;;;11.13;66.18
58473;BME280;44775;51.564;5.460;2023-04-25T08:07:33;101148.41;;;11.05;66.34
58473;BME280;44775;51.564;5.460;2023-04-25T08:09:58;101160.59;;;10.99;68.47
58473;BME280;44775;51.564;5.460;2023-04-25T08:12:23;101162.28;;;11.17;68.64
58473;BME280;44775;51.564;5.460;2023-04-25T08:14:49;101167.66;;;11.33;65.71
58473;BME280;44775;51.564;5.460;2023-04-25T08:17:14;101172.84;;;11.26;62.72
58473;BME280;44775;51.564;5.460;2023-04-25T08:19:40;101171.47;;;11.06;66.15
58473;BME280;44775;51.564;5.460;2023-04-25T08:22:05;101180.50;;;11.13;64.99
58473;BME280;44775;51.564;5.460;2023-04-25T08:24:30;101182.16;;;11.06;64.46
58473;BME280;44775;51.564;5.460;2023-04-25T08:26:55;101173.56;;;10.86;65.76
58473;BME280;44775;51.564;5.460;2023-04-25T08:29:21;101178.41;;;10.82;72.73
58473;BME280;44775;51.564;5.460;2023-04-25T08:31:48;101181.59;;;10.86;67.06
58473;BME280;44775;51.564;5.460;2023-04-25T08:34:13;101178.13;;;10.94;70.58
58473;BME280;44775;51.564;5.460;2023-04-25T08:36:38;101192.22;;;11.12;67.06
58473;BME280;44775;51.564;5.460;2023-04-25T08:39:03;101190.25;;;11.39;65.99
58473;BME280;44775;51.564;5.460;2023-04-25T08:41:28;101191.75;;;11.57;66.61
58473;BME280;44775;51.564;5.460;2023-04-25T08:43:54;101193.44;;;11.83;65.09
58473;BME280;44775;51.564;5.460;2023-04-25T08:46:20;101199.50;;;11.93;64.10
58473;BME280;44775;51.564;5.460;2023-04-25T08:48:46;101193.81;;;11.88;61.99
58473;BME280;44775;51.564;5.460;2023-04-25T08:51:53;101198.81;;;11.75;64.76
58473;BME280;44775;51.564;5.460;2023-04-25T08:54:10;101212.53;;;11.80;61.55
58473;BME280;44775;51.564;5.460;2023-04-25T08:56:36;101221.41;;;12.13;61.17
58473;BME280;44775;51.564;5.460;2023-04-25T08:59:02;101225.09;;;12.04;60.72
58473;BME280;44775;51.564;5.460;2023-04-25T09:01:28;101228.28;;;12.16;61.71
58473;BME280;44775;51.564;5.460;2023-04-25T09:03:53;101240.78;;;12.40;58.79
58473;BME280;44775;51.564;5.460;2023-04-25T09:06:19;101235.38;;;12.56;62.53
58473;BME280;44775;51.564;5.460;2023-04-25T09:08:44;101243.97;;;12.43;61.86
58473;BME280;44775;51.564;5.460;2023-04-25T09:11:09;101249.03;;;12.14;58.02
58473;BME280;44775;51.564;5.460;2023-04-25T09:13:35;101256.72;;;12.17;59.84
58473;BME280;44775;51.564;5.460;2023-04-25T09:16:00;101255.72;;;12.26;66.14
58473;BME280;44775;51.564;5.460;2023-04-25T09:18:26;101258.41;;;12.26;62.77
58473;BME280;44775;51.564;5.460;2023-04-25T09:20:53;101269.06;;;12.50;57.73
58473;BME280;44775;51.564;5.460;2023-04-25T09:23:18;101271.44;;;12.45;62.05
58473;BME280;44775;51.564;5.460;2023-04-25T09:25:45;101268.06;;;12.99;54.38
58473;BME280;44775;51.564;5.460;2023-04-25T09:28:12;101260.59;;;12.78;57.03
58473;BME280;44775;51.564;5.460;2023-04-25T09:30:37;101269.97;;;12.90;54.10
58473;BME280;44775;51.564;5.460;2023-04-25T09:35:34;101277.88;;;13.23;52.45
58473;BME280;44775;51.564;5.460;2023-04-25T09:37:59;101266.19;;;13.47;55.74
58473;BME280;44775;51.564;5.460;2023-04-25T09:40:25;101270.44;;;13.64;52.71
58473;BME280;44775;51.564;5.460;2023-04-25T09:42:50;101266.56;;;13.67;53.64
58473;BME280;44775;51.564;5.460;2023-04-25T09:45:16;101276.47;;;13.43;53.86
58473;BME280;44775;51.564;5.460;2023-04-25T09:47:41;101278.81;;;13.38;52.67
58473;BME280;44775;51.564;5.460;2023-04-25T09:50:15;101274.56;;;12.65;61.46
58473;BME280;44775;51.564;5.460;2023-04-25T09:52:40;101283.66;;;12.40;59.30
58473;BME280;44775;51.564;5.460;2023-04-25T09:55:06;101284.53;;;12.32;61.66
58473;BME280;44775;51.564;5.460;2023-04-25T09:57:31;101286.31;;;12.56;59.86
58473;BME280;44775;51.564;5.460;2023-04-25T09:59:56;101284.78;;;12.70;57.75
58473;BME280;44775;51.564;5.460;2023-04-25T10:02:25;101289.50;;;13.07;57.49
58473;BME280;44775;51.564;5.460;2023-04-25T10:04:51;101276.25;;;13.45;63.11
58473;BME280;44775;51.564;5.460;2023-04-25T10:07:18;101284.44;;;13.52;57.49
58473;BME280;44775;51.564;5.460;2023-04-25T10:09:44;101287.44;;;13.57;52.71
58473;BME280;44775;51.564;5.460;2023-04-25T10:12:11;101279.44;;;13.49;46.73
58473;BME280;44775;51.564;5.460;2023-04-25T10:14:37;101288.44;;;13.56;51.07
58473;BME280;44775;51.564;5.460;2023-04-25T10:17:03;101284.75;;;14.03;47.89
58473;BME280;44775;51.564;5.460;2023-04-25T10:19:28;101290.75;;;14.28;51.02
58473;BME280;44775;51.564;5.460;2023-04-25T10:24:58;101286.38;;;14.64;48.00
58473;BME280;44775;51.564;5.460;2023-04-25T10:27:23;101281.66;;;14.81;50.31
58473;BME280;44775;51.564;5.460;2023-04-25T10:30:04;101275.25;;;14.97;44.52
58473;BME280;44775;51.564;5.460;2023-04-25T10:32:31;101287.88;;;14.82;45.73
58473;BME280;44775;51.564;5.460;2023-04-25T10:34:58;101290.56;;;14.67;43.77
58473;BME280;44775;51.564;5.460;2023-04-25T10:37:23;101288.69;;;13.92;43.64
58473;BME280;44775;51.564;5.460;2023-04-25T10:39:49;101285.78;;;14.02;50.32
58473;BME280;44775;51.564;5.460;2023-04-25T10:42:14;101287.50;;;14.55;46.07
58473;BME280;44775;51.564;5.460;2023-04-25T10:44:39;101299.47;;;14.82;49.79
58473;BME280;44775;51.564;5.460;2023-04-25T10:47:06;101295.38;;;14.86;47.60
58473;BME280;44775;51.564;5.460;2023-04-25T10:49:41;101289.34;;;14.55;47.62
58473;BME280;44775;51.564;5.460;2023-04-25T10:54:41;101300.72;;;14.04;47.34
58473;BME280;44775;51.564;5.460;2023-04-25T10:57:07;101298.53;;;13.54;51.20
58473;BME280;44775;51.564;5.460;2023-04-25T10:59:32;101303.53;;;13.34;47.40
58473;BME280;44775;51.564;5.460;2023-04-25T11:01:57;101319.31;;;12.48;52.04
58473;BME280;44775;51.564;5.460;2023-04-25T11:04:23;101308.50;;;11.50;57.71
58473;BME280;44775;51.564;5.460;2023-04-25T11:07:00;101327.22;;;11.00;65.28
58473;BME280;44775;51.564;5.460;2023-04-25T11:09:27;101318.34;;;10.91;61.59
58473;BME280;44775;51.564;5.460;2023-04-25T11:11:57;101314.53;;;10.68;63.85
58473;BME280;44775;51.564;5.460;2023-04-25T11:14:23;101321.31;;;10.36;65.28
58473;BME280;44775;51.564;5.460;2023-04-25T11:16:54;101316.13;;;9.81;68.56
58473;BME280;44775;51.564;5.460;2023-04-25T11:19:23;101316.91;;;9.73;74.56
58473;BME280;44775;51.564;5.460;2023-04-25T11:21:49;101321.25;;;9.92;70.52
58473;BME280;44775;51.564;5.460;2023-04-25T11:24:15;101324.75;;;9.75;71.34
58473;BME280;44775;51.564;5.460;2023-04-25T11:26:43;101326.44;;;10.11;66.25
58473;BME280;44775;51.564;5.460;2023-04-25T11:29:11;101331.09;;;10.09;66.31
58473;BME280;44775;51.564;5.460;2023-04-25T11:31:36;101333.25;;;10.06;67.38
58473;BME280;44775;51.564;5.460;2023-04-25T11:34:01;101328.56;;;10.26;66.26
58473;BME280;44775;51.564;5.460;2023-04-25T11:36:27;101331.53;;;10.40;67.38
58473;BME280;44775;51.564;5.460;2023-04-25T11:38:53;101332.19;;;10.60;63.65
58473;BME280;44775;51.564;5.460;2023-04-25T11:41:19;101333.28;;;10.76;65.46
58473;BME280;44775;51.564;5.460;2023-04-25T11:43:44;101333.75;;;10.97;65.43
58473;BME280;44775;51.564;5.460;2023-04-25T11:46:09;101338.69;;;11.69;62.06
58473;BME280;44775;51.564;5.460;2023-04-25T11:48:38;101344.47;;;12.47;54.51
58473;BME280;44775;51.564;5.460;2023-04-25T11:51:04;101331.31;;;12.93;53.23
58473;BME280;44775;51.564;5.460;2023-04-25T11:53:29;101332.78;;;13.52;52.57
58473;BME280;44775;51.564;5.460;2023-04-25T11:55:54;101326.84;;;14.10;49.16
58473;BME280;44775;51.564;5.460;2023-04-25T11:58:19;101331.38;;;14.48;47.40
58473;BME280;44775;51.564;5.460;2023-04-25T12:00:45;101329.59;;;14.78;52.07
58473;BME280;44775;51.564;5.460;2023-04-25T12:03:10;101335.00;;;15.07;50.97
58473;BME280;44775;51.564;5.460;2023-04-25T12:05:35;101336.94;;;15.28;44.46
58473;BME280;44775;51.564;5.460;2023-04-25T12:08:17;101344.84;;;15.00;44.20
58473;BME280;44775;51.564;5.460;2023-04-25T12:10:43;101349.16;;;14.34;45.21
58473;BME280;44775;51.564;5.460;2023-04-25T12:13:22;101346.06;;;14.22;44.88
58473;BME280;44775;51.564;5.460;2023-04-25T12:15:48;101343.50;;;13.83;46.79
58473;BME280;44775;51.564;5.460;2023-04-25T12:18:14;101341.16;;;13.57;48.36
58473;BME280;44775;51.564;5.460;2023-04-25T12:20:39;101345.97;;;13.30;45.78
58473;BME280;44775;51.564;5.460;2023-04-25T12:23:07;101345.16;;;13.30;56.08
58473;BME280;44775;51.564;5.460;2023-04-25T12:25:39;101361.63;;;13.10;46.19
58473;BME280;44775;51.564;5.460;2023-04-25T12:30:56;101355.81;;;14.23;42.75
58473;BME280;44775;51.564;5.460;2023-04-25T12:33:23;101352.16;;;14.77;40.49
58473;BME280;44775;51.564;5.460;2023-04-25T12:35:48;101362.94;;;14.92;41.76
58473;BME280;44775;51.564;5.460;2023-04-25T12:38:29;101361.25;;;14.91;38.92
58473;BME280;44775;51.564;5.460;2023-04-25T12:40:55;101358.22;;;14.79;47.23
58473;BME280;44775;51.564;5.460;2023-04-25T12:43:21;101367.22;;;15.01;41.29
58473;BME280;44775;51.564;5.460;2023-04-25T12:45:50;101358.09;;;15.31;40.94
58473;BME280;44775;51.564;5.460;2023-04-25T12:48:18;101365.78;;;15.64;39.89
58473;BME280;44775;51.564;5.460;2023-04-25T12:50:44;101373.97;;;15.92;38.52
58473;BME280;44775;51.564;5.460;2023-04-25T12:53:10;101379.66;;;15.97;36.44